Time,TemperatureF,DewpointF,PressureIn,WindDirection,WindDirectionDegrees,WindSpeedMPH,WindSpeedGustMPH,Humidity,HourlyPrecipIn,Conditions,Clouds,dailyrainin,SoftwareType,DateUTC
2013-02-15 00:00:00,32.5,29.3,30.01,SW,219,0.0,0.0,88,0.00,,,0.00,Wunderground v.1.13,2013-02-15 05:00:00,
2013-02-15 00:02:00,32.5,29.3,30.01,SW,219,0.0,0.0,88,0.00,,,0.00,Wunderground v.1.13,2013-02-15 05:02:00,
2013-02-15 00:06:00,32.4,29.2,30.01,SW,219,0.0,0.0,88,0.00,,,0.00,Wunderground v.1.13,2013-02-15 05:06:00,
2013-02-15 00:12:00,32.4,29.2,30.01,SW,219,0.0,0.0,88,0.00,,,0.00,Wunderground v.1.13,2013-02-15 05:12:00,
2013-02-15 00:14:00,32.2,29.0,30.01,SW,219,0.0,0.0,88,0.00,,,0.00,Wunderground v.1.13,2013-02-15 05:14:00,
2013-02-15 00:20:00,32.2,29.3,30.00,SW,219,0.0,0.0,89,0.00,,,0.00,Wunderground v.1.13,2013-02-15 05:20:00,
2013-02-15 00:26:00,32.1,29.2,30.00,SW,219,0.0,0.0,89,0.00,,,0.00,Wunderground v.1.13,2013-02-15 05:26:00,
2013-02-15 00:32:00,31.9,29.0,30.02,SW,219,0.0,0.0,89,0.00,,,0.00,Wunderground v.1.13,2013-02-15 05:32:00,
2013-02-15 00:38:00,31.8,29.2,30.02,SW,219,0.0,0.0,90,0.00,,,0.00,Wunderground v.1.13,2013-02-15 05:38:00,
2013-02-15 00:44:00,31.8,29.2,30.02,SW,219,0.0,0.0,90,0.00,,,0.00,Wunderground v.1.13,2013-02-15 05:44:00,
2013-02-15 00:50:00,31.6,29.0,30.03,SW,219,0.0,0.0,90,0.00,,,0.00,Wunderground v.1.13,2013-02-15 05:50:00,
2013-02-15 00:56:00,31.5,28.9,30.03,SW,219,0.0,0.0,90,0.00,,,0.00,Wunderground v.1.13,2013-02-15 05:56:00,
2013-02-15 01:02:00,31.5,28.9,30.03,SW,219,0.0,0.0,90,0.00,,,0.00,Wunderground v.1.13,2013-02-15 06:02:00,
2013-02-15 01:10:00,31.3,28.7,30.03,SW,219,0.0,0.0,90,0.00,,,0.00,Wunderground v.1.13,2013-02-15 06:10:00,
2013-02-15 01:16:00,31.2,28.6,30.02,SW,219,0.0,0.0,90,0.00,,,0.00,Wunderground v.1.13,2013-02-15 06:16:00,
2013-02-15 01:22:00,31.0,28.4,30.02,SSW,208,0.0,0.0,90,0.00,,,0.00,Wunderground v.1.13,2013-02-15 06:22:00,
2013-02-15 01:28:00,31.0,28.4,30.02,SW,219,0.0,0.0,90,0.00,,,0.00,Wunderground v.1.13,2013-02-15 06:28:00,
2013-02-15 01:34:00,30.9,28.3,30.02,SW,219,0.0,0.0,90,0.00,,,0.00,Wunderground v.1.13,2013-02-15 06:34:00,
2013-02-15 01:40:00,30.7,28.1,30.02,SW,219,0.0,0.0,90,0.00,,,0.00,Wunderground v.1.13,2013-02-15 06:40:00,
2013-02-15 01:46:00,30.7,28.1,30.02,SW,219,0.0,0.0,90,0.00,,,0.00,Wunderground v.1.13,2013-02-15 06:46:00,
2013-02-15 01:54:00,30.6,28.0,30.02,SW,219,0.0,0.0,90,0.00,,,0.00,Wunderground v.1.13,2013-02-15 06:54:00,
2013-02-15 02:00:00,30.4,27.8,30.02,SW,219,0.0,0.0,90,0.00,,,0.00,Wunderground v.1.13,2013-02-15 07:00:00,
2013-02-15 02:06:00,30.4,28.1,30.01,SW,219,0.0,0.0,91,0.00,,,0.00,Wunderground v.1.13,2013-02-15 07:06:00,
2013-02-15 02:12:00,30.3,27.7,30.01,SW,219,0.0,0.0,90,0.00,,,0.00,Wunderground v.1.13,2013-02-15 07:12:00,
2013-02-15 02:18:00,30.1,27.8,30.01,SW,219,0.0,0.0,91,0.00,,,0.00,Wunderground v.1.13,2013-02-15 07:18:00,
2013-02-15 02:24:00,30.1,27.8,30.01,SW,219,0.0,0.0,91,0.00,,,0.00,Wunderground v.1.13,2013-02-15 07:24:00,
2013-02-15 02:30:00,30.0,27.7,30.01,SW,219,0.0,0.0,91,0.00,,,0.00,Wunderground v.1.13,2013-02-15 07:30:00,
2013-02-15 02:36:00,30.0,27.7,30.01,SW,219,0.0,0.0,91,0.00,,,0.00,Wunderground v.1.13,2013-02-15 07:36:00,
2013-02-15 02:42:00,30.0,27.7,30.01,SW,219,0.0,0.0,91,0.00,,,0.00,Wunderground v.1.13,2013-02-15 07:42:00,
2013-02-15 02:48:00,29.8,27.8,30.00,SW,219,0.0,0.0,92,0.00,,,0.00,Wunderground v.1.13,2013-02-15 07:48:00,
2013-02-15 02:54:00,29.8,27.8,30.00,SW,219,0.0,0.0,92,0.00,,,0.00,Wunderground v.1.13,2013-02-15 07:54:00,
2013-02-15 03:00:00,29.8,27.8,30.00,SW,219,0.0,0.0,92,0.00,,,0.00,Wunderground v.1.13,2013-02-15 08:00:00,
2013-02-15 03:06:00,29.7,27.7,30.00,SW,219,0.0,0.0,92,0.00,,,0.00,Wunderground v.1.13,2013-02-15 08:06:00,
2013-02-15 03:12:00,29.7,27.7,30.00,SW,219,0.0,0.0,92,0.00,,,0.00,Wunderground v.1.13,2013-02-15 08:12:00,
2013-02-15 03:18:00,29.5,27.5,30.00,SW,219,0.0,0.0,92,0.00,,,0.00,Wunderground v.1.13,2013-02-15 08:18:00,
2013-02-15 03:24:00,29.5,27.5,30.00,SW,219,0.0,0.0,92,0.00,,,0.00,Wunderground v.1.13,2013-02-15 08:24:00,
2013-02-15 03:30:00,29.4,27.4,30.00,SW,219,0.0,0.0,92,0.00,,,0.00,Wunderground v.1.13,2013-02-15 08:30:00,
2013-02-15 03:36:00,29.4,27.4,30.00,SW,219,0.0,0.0,92,0.00,,,0.00,Wunderground v.1.13,2013-02-15 08:36:00,
2013-02-15 03:42:00,29.3,27.3,30.00,SW,219,0.0,0.0,92,0.00,,,0.00,Wunderground v.1.13,2013-02-15 08:42:00,
2013-02-15 03:48:00,29.3,27.3,30.00,SW,219,0.0,0.0,92,0.00,,,0.00,Wunderground v.1.13,2013-02-15 08:48:00,
2013-02-15 03:54:00,29.1,27.1,30.00,SW,219,0.0,0.0,92,0.00,,,0.00,Wunderground v.1.13,2013-02-15 08:54:00,
2013-02-15 04:00:00,29.1,27.1,30.00,SW,219,0.0,0.0,92,0.00,,,0.00,Wunderground v.1.13,2013-02-15 09:00:00,
2013-02-15 04:07:00,29.1,27.1,30.00,SW,219,0.0,0.0,92,0.00,,,0.00,Wunderground v.1.13,2013-02-15 09:07:00,
2013-02-15 04:12:00,29.0,27.2,30.00,SW,219,0.0,0.0,93,0.00,,,0.00,Wunderground v.1.13,2013-02-15 09:12:00,
2013-02-15 04:18:00,29.0,27.2,30.00,SW,219,0.0,0.0,93,0.00,,,0.00,Wunderground v.1.13,2013-02-15 09:18:00,
2013-02-15 04:24:00,29.0,27.2,30.00,SW,219,0.0,0.0,93,0.00,,,0.00,Wunderground v.1.13,2013-02-15 09:24:00,
2013-02-15 04:30:00,29.0,27.2,30.00,SW,219,0.0,0.0,93,0.00,,,0.00,Wunderground v.1.13,2013-02-15 09:30:00,
2013-02-15 04:36:00,28.8,27.0,30.00,SW,219,0.0,0.0,93,0.00,,,0.00,Wunderground v.1.13,2013-02-15 09:36:00,
2013-02-15 04:42:00,28.8,27.0,30.00,SW,219,0.0,0.0,93,0.00,,,0.00,Wunderground v.1.13,2013-02-15 09:42:00,
2013-02-15 04:48:00,28.8,27.0,30.00,SW,219,0.0,0.0,93,0.00,,,0.00,Wunderground v.1.13,2013-02-15 09:48:00,
2013-02-15 04:54:00,28.7,26.9,30.00,SW,219,0.0,0.0,93,0.00,,,0.00,Wunderground v.1.13,2013-02-15 09:54:00,
2013-02-15 05:00:00,28.7,26.9,30.01,SW,219,0.0,0.0,93,0.00,,,0.00,Wunderground v.1.13,2013-02-15 10:00:00,
2013-02-15 05:06:00,28.7,26.9,30.01,SW,219,0.0,0.0,93,0.00,,,0.00,Wunderground v.1.13,2013-02-15 10:06:00,
2013-02-15 05:12:00,28.5,26.7,30.01,SW,219,0.0,0.0,93,0.00,,,0.00,Wunderground v.1.13,2013-02-15 10:12:00,
2013-02-15 05:18:00,28.5,26.7,30.01,SW,219,0.0,0.0,93,0.00,,,0.00,Wunderground v.1.13,2013-02-15 10:18:00,
2013-02-15 05:24:00,28.5,26.7,30.01,SW,219,0.0,0.0,93,0.00,,,0.00,Wunderground v.1.13,2013-02-15 10:24:00,
2013-02-15 05:30:00,28.4,26.6,30.01,SW,219,0.0,0.0,93,0.00,,,0.00,Wunderground v.1.13,2013-02-15 10:30:00,
2013-02-15 05:36:00,28.4,26.6,30.01,SW,219,0.0,0.0,93,0.00,,,0.00,Wunderground v.1.13,2013-02-15 10:36:00,
2013-02-15 05:42:00,28.4,26.6,30.01,SW,219,0.0,0.0,93,0.00,,,0.00,Wunderground v.1.13,2013-02-15 10:42:00,
2013-02-15 05:48:00,28.2,26.4,30.01,SW,219,0.0,0.0,93,0.00,,,0.00,Wunderground v.1.13,2013-02-15 10:48:00,
2013-02-15 05:54:00,28.2,26.4,30.01,SW,219,0.0,0.0,93,0.00,,,0.00,Wunderground v.1.13,2013-02-15 10:54:00,
2013-02-15 06:00:00,28.2,26.4,30.01,SW,219,0.0,0.0,93,0.00,,,0.00,Wunderground v.1.13,2013-02-15 11:00:00,
2013-02-15 06:06:00,28.2,26.4,30.01,SW,219,0.0,0.0,93,0.00,,,0.00,Wunderground v.1.13,2013-02-15 11:06:00,
2013-02-15 06:12:00,28.1,26.3,30.01,SW,219,0.0,0.0,93,0.00,,,0.00,Wunderground v.1.13,2013-02-15 11:12:00,
2013-02-15 06:18:00,28.1,26.3,30.02,SW,219,0.0,0.0,93,0.00,,,0.00,Wunderground v.1.13,2013-02-15 11:18:00,
2013-02-15 06:24:00,28.1,26.3,30.02,SW,219,0.0,0.0,93,0.00,,,0.00,Wunderground v.1.13,2013-02-15 11:24:00,
2013-02-15 06:30:00,27.9,26.1,30.02,SW,219,0.0,0.0,93,0.00,,,0.00,Wunderground v.1.13,2013-02-15 11:30:00,
2013-02-15 06:36:00,27.9,26.1,30.02,SW,219,0.0,0.0,93,0.00,,,0.00,Wunderground v.1.13,2013-02-15 11:36:00,
2013-02-15 06:42:00,27.8,26.0,30.02,SW,219,0.0,0.0,93,0.00,,,0.00,Wunderground v.1.13,2013-02-15 11:42:00,
2013-02-15 06:48:00,27.8,26.0,30.02,SW,219,0.0,0.0,93,0.00,,,0.00,Wunderground v.1.13,2013-02-15 11:48:00,
2013-02-15 06:54:00,27.8,26.0,30.02,SW,219,0.0,0.0,93,0.00,,,0.00,Wunderground v.1.13,2013-02-15 11:54:00,
2013-02-15 07:00:00,27.6,25.8,30.02,SW,219,0.0,0.0,93,0.00,,,0.00,Wunderground v.1.13,2013-02-15 12:00:00,
2013-02-15 07:06:00,27.6,25.8,30.02,SW,219,0.0,0.0,93,0.00,,,0.00,Wunderground v.1.13,2013-02-15 12:06:00,
2013-02-15 07:12:00,27.5,25.7,30.02,SW,219,0.0,0.0,93,0.00,,,0.00,Wunderground v.1.13,2013-02-15 12:12:00,
2013-02-15 07:18:00,27.5,25.7,30.03,SW,219,0.0,0.0,93,0.00,,,0.00,Wunderground v.1.13,2013-02-15 12:18:00,
2013-02-15 07:24:00,27.5,25.7,30.03,SW,219,0.0,0.0,93,0.00,,,0.00,Wunderground v.1.13,2013-02-15 12:24:00,
2013-02-15 07:30:00,27.5,25.7,30.03,SW,219,0.0,0.0,93,0.00,,,0.00,Wunderground v.1.13,2013-02-15 12:30:00,
2013-02-15 07:36:00,27.5,25.7,30.03,SW,219,0.0,0.0,93,0.00,,,0.00,Wunderground v.1.13,2013-02-15 12:36:00,
2013-02-15 07:42:00,27.5,26.0,30.03,SW,219,0.0,0.0,94,0.00,,,0.00,Wunderground v.1.13,2013-02-15 12:42:00,
2013-02-15 07:48:00,27.6,26.1,30.03,SW,219,0.0,0.0,94,0.00,,,0.00,Wunderground v.1.13,2013-02-15 12:48:00,
2013-02-15 07:54:00,27.6,26.1,30.03,SW,219,0.0,0.0,94,0.00,,,0.00,Wunderground v.1.13,2013-02-15 12:54:00,
2013-02-15 08:00:00,27.8,26.3,30.03,SW,219,0.0,0.0,94,0.00,,,0.00,Wunderground v.1.13,2013-02-15 13:00:00,
2013-02-15 08:06:00,27.9,26.4,30.03,SW,219,0.0,0.0,94,0.00,,,0.00,Wunderground v.1.13,2013-02-15 13:06:00,
2013-02-15 08:12:00,28.1,26.9,30.03,SW,219,0.0,0.0,95,0.00,,,0.00,Wunderground v.1.13,2013-02-15 13:12:00,
2013-02-15 08:18:00,29.7,28.4,30.04,SW,219,0.0,0.0,95,0.00,,,0.00,Wunderground v.1.13,2013-02-15 13:18:00,
2013-02-15 08:24:00,31.3,30.3,30.04,SW,219,0.0,0.0,96,0.00,,,0.00,Wunderground v.1.13,2013-02-15 13:24:00,
2013-02-15 08:30:00,32.4,31.4,30.04,SW,217,0.0,0.0,96,0.00,,,0.00,Wunderground v.1.13,2013-02-15 13:30:00,
2013-02-15 08:36:00,33.1,32.1,30.04,SW,219,0.0,0.0,96,0.00,,,0.01,Wunderground v.1.13,2013-02-15 13:36:00,
2013-02-15 08:42:00,33.8,32.8,30.04,SW,219,0.0,0.0,96,0.00,,,0.01,Wunderground v.1.13,2013-02-15 13:42:00,
2013-02-15 08:48:00,35.0,34.0,30.04,SW,219,0.0,0.0,96,0.00,,,0.01,Wunderground v.1.13,2013-02-15 13:48:00,
2013-02-15 08:54:00,35.9,34.6,30.04,SW,219,0.0,0.0,95,0.00,,,0.01,Wunderground v.1.13,2013-02-15 13:54:00,
2013-02-15 09:00:00,37.6,36.3,30.04,SW,219,0.0,0.0,95,0.00,,,0.01,Wunderground v.1.13,2013-02-15 14:00:00,
2013-02-15 09:06:00,38.9,37.3,30.04,SW,219,0.0,0.0,94,0.00,,,0.01,Wunderground v.1.13,2013-02-15 14:06:00,
2013-02-15 09:12:00,40.1,38.0,30.04,SW,219,0.0,0.0,92,0.00,,,0.01,Wunderground v.1.13,2013-02-15 14:12:00,
2013-02-15 09:18:00,41.3,38.0,30.04,SW,219,0.0,0.0,88,0.00,,,0.01,Wunderground v.1.13,2013-02-15 14:18:00,
2013-02-15 09:24:00,42.3,38.7,30.04,SW,219,0.0,0.0,87,0.00,,,0.01,Wunderground v.1.13,2013-02-15 14:24:00,
2013-02-15 09:30:00,43.3,38.2,30.04,SW,219,0.0,0.0,82,0.00,,,0.01,Wunderground v.1.13,2013-02-15 14:30:00,
2013-02-15 09:36:00,44.1,37.7,30.04,SW,219,0.0,0.0,78,0.00,,,0.01,Wunderground v.1.13,2013-02-15 14:36:00,
2013-02-15 09:42:00,44.9,37.8,30.04,SW,219,0.0,0.0,76,0.00,,,0.01,Wunderground v.1.13,2013-02-15 14:42:00,
2013-02-15 09:48:00,45.8,37.6,30.03,SW,217,0.0,0.0,73,0.00,,,0.01,Wunderground v.1.13,2013-02-15 14:48:00,
2013-02-15 09:54:00,46.7,38.5,30.03,SW,219,0.0,0.0,73,0.00,,,0.01,Wunderground v.1.13,2013-02-15 14:54:00,
2013-02-15 10:00:00,47.6,37.6,30.03,SW,219,0.0,0.0,68,0.00,,,0.01,Wunderground v.1.13,2013-02-15 15:00:00,
2013-02-15 10:06:00,48.2,37.4,30.03,SW,217,0.0,0.0,66,0.00,,,0.01,Wunderground v.1.13,2013-02-15 15:06:00,
2013-02-15 10:12:00,48.9,38.0,30.03,SW,219,0.0,0.0,66,0.00,,,0.01,Wunderground v.1.13,2013-02-15 15:12:00,
2013-02-15 10:18:00,49.6,37.1,30.03,SW,219,0.0,1.0,62,0.00,,,0.01,Wunderground v.1.13,2013-02-15 15:18:00,
2013-02-15 10:24:00,50.2,37.7,30.03,SW,219,0.0,0.0,62,0.00,,,0.01,Wunderground v.1.13,2013-02-15 15:24:00,
2013-02-15 10:30:00,50.7,37.3,30.02,SW,219,0.0,0.0,60,0.00,,,0.01,Wunderground v.1.13,2013-02-15 15:30:00,
2013-02-15 10:36:00,51.3,37.0,30.02,SW,219,0.0,0.0,58,0.00,,,0.01,Wunderground v.1.13,2013-02-15 15:36:00,
2013-02-15 10:42:00,52.0,37.7,30.02,WNW,296,0.0,2.0,58,0.00,,,0.01,Wunderground v.1.13,2013-02-15 15:42:00,
2013-02-15 10:48:00,52.2,37.0,30.02,NNW,335,1.0,1.0,56,0.00,,,0.01,Wunderground v.1.13,2013-02-15 15:48:00,
2013-02-15 10:54:00,52.9,37.6,30.02,NNW,335,1.0,1.0,56,0.00,,,0.01,Wunderground v.1.13,2013-02-15 15:54:00,
2013-02-15 11:00:00,54.1,37.3,30.02,NNW,335,0.0,1.0,53,0.00,,,0.01,Wunderground v.1.13,2013-02-15 16:00:00,
2013-02-15 11:06:00,54.7,37.4,30.02,NNW,335,1.0,1.0,52,0.00,,,0.01,Wunderground v.1.13,2013-02-15 16:06:00,
2013-02-15 11:12:00,55.3,37.0,30.02,NNW,333,1.0,1.0,50,0.00,,,0.01,Wunderground v.1.13,2013-02-15 16:12:00,
2013-02-15 11:18:00,55.7,36.3,30.01,North,359,1.0,1.0,48,0.00,,,0.01,Wunderground v.1.13,2013-02-15 16:18:00,
2013-02-15 11:24:00,56.5,37.0,30.01,North,0,2.0,2.0,48,0.00,,,0.01,Wunderground v.1.13,2013-02-15 16:24:00,
2013-02-15 11:30:00,56.7,35.0,30.01,NNW,346,2.0,2.0,44,0.00,,,0.01,Wunderground v.1.13,2013-02-15 16:30:00,
2013-02-15 11:36:00,57.2,35.5,30.00,North,350,3.0,3.0,44,0.00,,,0.01,Wunderground v.1.13,2013-02-15 16:36:00,
2013-02-15 11:42:00,57.3,33.8,30.00,North,350,2.0,2.0,41,0.00,,,0.01,Wunderground v.1.13,2013-02-15 16:42:00,
2013-02-15 11:48:00,57.6,34.7,30.00,North,350,1.0,1.0,42,0.00,,,0.01,Wunderground v.1.13,2013-02-15 16:48:00,
2013-02-15 11:54:00,58.1,35.1,30.00,North,0,1.0,5.0,42,0.00,,,0.01,Wunderground v.1.13,2013-02-15 16:54:00,
2013-02-15 12:00:00,58.3,34.7,30.00,North,0,1.0,1.0,41,0.00,,,0.01,Wunderground v.1.13,2013-02-15 17:00:00,
2013-02-15 12:06:00,58.6,34.3,29.99,North,356,1.0,1.0,40,0.00,,,0.01,Wunderground v.1.13,2013-02-15 17:06:00,
2013-02-15 12:12:00,58.6,34.3,29.99,WSW,248,1.0,1.0,40,0.00,,,0.01,Wunderground v.1.13,2013-02-15 17:12:00,
2013-02-15 12:18:00,58.9,34.6,29.98,North,352,1.0,2.0,40,0.00,,,0.01,Wunderground v.1.13,2013-02-15 17:18:00,
2013-02-15 12:24:00,59.2,32.2,29.98,WSW,244,1.0,3.0,36,0.00,,,0.01,Wunderground v.1.13,2013-02-15 17:24:00,
2013-02-15 12:30:00,58.3,31.4,29.98,SSW,205,1.0,1.0,36,0.00,,,0.01,Wunderground v.1.13,2013-02-15 17:30:00,
2013-02-15 12:36:00,58.3,31.4,29.98,ESE,102,0.0,0.0,36,0.00,,,0.01,Wunderground v.1.13,2013-02-15 17:36:00,
2013-02-15 12:42:00,58.7,31.8,29.98,SW,217,1.0,2.0,36,0.00,,,0.01,Wunderground v.1.13,2013-02-15 17:42:00,
2013-02-15 12:48:00,59.5,31.1,29.97,West,261,2.0,2.0,34,0.00,,,0.01,Wunderground v.1.13,2013-02-15 17:48:00,
2013-02-15 12:54:00,59.6,33.3,29.97,WSW,244,1.0,1.0,37,0.00,,,0.01,Wunderground v.1.13,2013-02-15 17:54:00,
2013-02-15 13:00:00,60.1,30.9,29.97,SSE,147,1.0,1.0,33,0.00,,,0.01,Wunderground v.1.13,2013-02-15 18:00:00,
2013-02-15 13:06:00,60.1,30.9,29.96,SSW,192,1.0,1.0,33,0.00,,,0.01,Wunderground v.1.13,2013-02-15 18:06:00,
2013-02-15 13:12:00,60.9,31.6,29.96,WNW,302,1.0,3.0,33,0.00,,,0.01,Wunderground v.1.13,2013-02-15 18:12:00,
2013-02-15 13:18:00,60.5,31.2,29.95,SSW,192,1.0,5.0,33,0.00,,,0.01,Wunderground v.1.13,2013-02-15 18:18:00,
2013-02-15 13:24:00,60.2,31.0,29.95,WSW,239,1.0,1.0,33,0.00,,,0.01,Wunderground v.1.13,2013-02-15 18:24:00,
2013-02-15 13:30:00,60.5,29.7,29.95,SSW,203,1.0,6.0,31,0.00,,,0.01,Wunderground v.1.13,2013-02-15 18:30:00,
2013-02-15 13:36:00,60.5,30.5,29.95,North,350,1.0,1.0,32,0.00,,,0.01,Wunderground v.1.13,2013-02-15 18:36:00,
2013-02-15 13:42:00,60.5,30.5,29.95,SSE,158,1.0,1.0,32,0.00,,,0.01,Wunderground v.1.13,2013-02-15 18:42:00,
2013-02-15 13:48:00,60.9,31.6,29.94,WNW,285,1.0,3.0,33,0.00,,,0.01,Wunderground v.1.13,2013-02-15 18:48:00,
2013-02-15 13:54:00,60.9,30.0,29.94,NW,326,2.0,2.0,31,0.00,,,0.01,Wunderground v.1.13,2013-02-15 18:54:00,
2013-02-15 14:00:00,59.8,31.3,29.94,SSW,193,1.0,2.0,34,0.00,,,0.01,Wunderground v.1.13,2013-02-15 19:00:00,
2013-02-15 14:06:00,60.5,31.2,29.93,SSE,148,1.0,3.0,33,0.00,,,0.01,Wunderground v.1.13,2013-02-15 19:06:00,
2013-02-15 14:12:00,60.9,30.8,29.93,SE,130,0.0,0.0,32,0.00,,,0.01,Wunderground v.1.13,2013-02-15 19:12:00,
2013-02-15 14:18:00,61.5,31.3,29.92,East,85,0.0,0.0,32,0.00,,,0.01,Wunderground v.1.13,2013-02-15 19:18:00,
2013-02-15 14:24:00,61.6,29.8,29.92,SSW,192,1.0,2.0,30,0.00,,,0.01,Wunderground v.1.13,2013-02-15 19:24:00,
2013-02-15 14:30:00,61.2,30.3,29.92,WSW,243,2.0,2.0,31,0.00,,,0.01,Wunderground v.1.13,2013-02-15 19:30:00,
2013-02-15 14:36:00,62.1,31.9,29.91,WNW,295,1.0,1.0,32,0.00,,,0.01,Wunderground v.1.13,2013-02-15 19:36:00,
2013-02-15 14:42:00,62.3,29.6,29.91,SSW,192,1.0,4.0,29,0.00,,,0.01,Wunderground v.1.13,2013-02-15 19:42:00,
2013-02-15 14:48:00,61.6,29.0,29.91,SW,222,2.0,2.0,29,0.00,,,0.01,Wunderground v.1.13,2013-02-15 19:48:00,
2013-02-15 14:54:00,61.5,28.9,29.91,WSW,241,1.0,1.0,29,0.00,,,0.01,Wunderground v.1.13,2013-02-15 19:54:00,
2013-02-15 15:00:00,61.8,29.2,29.91,NNW,329,0.0,0.0,29,0.00,,,0.01,Wunderground v.1.13,2013-02-15 20:00:00,
2013-02-15 15:06:00,62.0,31.0,29.90,SW,219,0.0,3.0,31,0.00,,,0.01,Wunderground v.1.13,2013-02-15 20:06:00,
2013-02-15 15:12:00,61.5,29.7,29.90,South,189,1.0,2.0,30,0.00,,,0.01,Wunderground v.1.13,2013-02-15 20:12:00,
2013-02-15 15:18:00,61.5,30.6,29.90,WSW,241,1.0,1.0,31,0.00,,,0.01,Wunderground v.1.13,2013-02-15 20:18:00,
2013-02-15 15:24:00,61.8,30.0,29.90,SW,229,0.0,0.0,30,0.00,,,0.01,Wunderground v.1.13,2013-02-15 20:24:00,
2013-02-15 15:30:00,62.0,31.8,29.90,WSW,254,0.0,0.0,32,0.00,,,0.01,Wunderground v.1.13,2013-02-15 20:30:00,
2013-02-15 15:36:00,62.1,31.1,29.89,North,350,0.0,1.0,31,0.00,,,0.01,Wunderground v.1.13,2013-02-15 20:36:00,
2013-02-15 15:42:00,62.4,29.7,29.89,North,349,0.0,2.0,29,0.00,,,0.01,Wunderground v.1.13,2013-02-15 20:42:00,
2013-02-15 15:48:00,62.0,29.3,29.89,West,275,1.0,1.0,29,0.00,,,0.01,Wunderground v.1.13,2013-02-15 20:48:00,
2013-02-15 15:54:00,61.8,30.8,29.89,WNW,294,0.0,0.0,31,0.00,,,0.01,Wunderground v.1.13,2013-02-15 20:54:00,
2013-02-15 16:00:00,62.1,30.3,29.88,WNW,295,0.0,0.0,30,0.00,,,0.01,Wunderground v.1.13,2013-02-15 21:00:00,
2013-02-15 16:06:00,61.5,31.3,29.88,West,280,0.0,0.0,32,0.00,,,0.01,Wunderground v.1.13,2013-02-15 21:06:00,
2013-02-15 16:12:00,61.3,29.6,29.88,SSW,198,0.0,0.0,30,0.00,,,0.01,Wunderground v.1.13,2013-02-15 21:12:00,
2013-02-15 16:18:00,61.0,30.1,29.88,SSW,203,0.0,0.0,31,0.00,,,0.01,Wunderground v.1.13,2013-02-15 21:18:00,
2013-02-15 16:24:00,60.9,28.4,29.88,SSW,206,1.0,3.0,29,0.00,,,0.01,Wunderground v.1.13,2013-02-15 21:24:00,
2013-02-15 16:30:00,60.7,30.6,29.88,SSW,206,1.0,1.0,32,0.00,,,0.01,Wunderground v.1.13,2013-02-15 21:30:00,
2013-02-15 16:36:00,60.4,33.3,29.88,SSW,208,0.0,0.0,36,0.00,,,0.01,Wunderground v.1.13,2013-02-15 21:36:00,
2013-02-15 16:42:00,60.1,30.1,29.88,WSW,241,0.0,0.0,32,0.00,,,0.01,Wunderground v.1.13,2013-02-15 21:42:00,
2013-02-15 16:48:00,60.1,30.1,29.88,WSW,240,0.0,0.0,32,0.00,,,0.01,Wunderground v.1.13,2013-02-15 21:48:00,
2013-02-15 16:54:00,59.8,29.9,29.88,WSW,241,0.0,0.0,32,0.00,,,0.01,Wunderground v.1.13,2013-02-15 21:54:00,
2013-02-15 17:00:00,59.9,29.9,29.88,WSW,240,0.0,0.0,32,0.00,,,0.01,Wunderground v.1.13,2013-02-15 22:00:00,
2013-02-15 17:06:00,59.3,31.6,29.88,WSW,241,0.0,0.0,35,0.00,,,0.01,Wunderground v.1.13,2013-02-15 22:06:00,
2013-02-15 17:12:00,58.9,32.7,29.88,WSW,241,0.0,0.0,37,0.00,,,0.01,Wunderground v.1.13,2013-02-15 22:12:00,
2013-02-15 17:18:00,58.9,32.0,29.88,WSW,240,0.0,0.0,36,0.00,,,0.01,Wunderground v.1.13,2013-02-15 22:18:00,
2013-02-15 17:24:00,58.9,30.6,29.88,WSW,248,0.0,0.0,34,0.00,,,0.01,Wunderground v.1.13,2013-02-15 22:24:00,
2013-02-15 17:30:00,58.1,31.3,29.88,WSW,248,0.0,0.0,36,0.00,,,0.01,Wunderground v.1.13,2013-02-15 22:30:00,
2013-02-15 17:36:00,57.3,32.5,29.87,WSW,248,0.0,0.0,39,0.00,,,0.01,Wunderground v.1.13,2013-02-15 22:36:00,
2013-02-15 17:42:00,56.9,32.8,29.87,WSW,248,0.0,0.0,40,0.00,,,0.01,Wunderground v.1.13,2013-02-15 22:42:00,
2013-02-15 17:48:00,56.2,34.0,29.87,WSW,248,0.0,0.0,43,0.00,,,0.01,Wunderground v.1.13,2013-02-15 22:48:00,
2013-02-15 17:54:00,55.3,33.2,29.87,WSW,248,0.0,0.0,43,0.00,,,0.01,Wunderground v.1.13,2013-02-15 22:54:00,
2013-02-15 18:00:00,54.5,33.6,29.87,WSW,248,0.0,0.0,45,0.00,,,0.01,Wunderground v.1.13,2013-02-15 23:00:00,
2013-02-15 18:06:00,53.3,33.6,29.87,WSW,248,0.0,0.0,47,0.00,,,0.01,Wunderground v.1.13,2013-02-15 23:06:00,
2013-02-15 18:12:00,52.6,35.5,29.87,WSW,248,0.0,0.0,52,0.00,,,0.01,Wunderground v.1.13,2013-02-15 23:12:00,
2013-02-15 18:18:00,51.6,36.4,29.87,WSW,248,0.0,0.0,56,0.00,,,0.01,Wunderground v.1.13,2013-02-15 23:18:00,
2013-02-15 18:24:00,50.8,36.1,29.87,WSW,248,0.0,0.0,57,0.00,,,0.01,Wunderground v.1.13,2013-02-15 23:24:00,
2013-02-15 18:30:00,49.8,36.0,29.87,WSW,248,0.0,0.0,59,0.00,,,0.01,Wunderground v.1.13,2013-02-15 23:30:00,
2013-02-15 18:36:00,49.1,35.8,29.87,WSW,248,0.0,0.0,60,0.00,,,0.01,Wunderground v.1.13,2013-02-15 23:36:00,
2013-02-15 18:42:00,48.3,35.9,29.87,WSW,248,0.0,0.0,62,0.00,,,0.01,Wunderground v.1.13,2013-02-15 23:42:00,
2013-02-15 18:48:00,47.4,35.0,29.88,WSW,248,0.0,0.0,62,0.00,,,0.01,Wunderground v.1.13,2013-02-15 23:48:00,
2013-02-15 18:54:00,47.0,35.0,29.88,WSW,248,0.0,0.0,63,0.00,,,0.01,Wunderground v.1.13,2013-02-15 23:54:00,
2013-02-15 19:00:00,46.5,35.0,29.88,WSW,248,0.0,0.0,64,0.00,,,0.01,Wunderground v.1.13,2013-02-16 00:00:00,
2013-02-15 19:06:00,45.7,35.7,29.88,WSW,248,0.0,0.0,68,0.00,,,0.01,Wunderground v.1.13,2013-02-16 00:06:00,
2013-02-15 19:12:00,45.4,35.1,29.88,WSW,248,0.0,0.0,67,0.00,,,0.01,Wunderground v.1.13,2013-02-16 00:12:00,
2013-02-15 19:18:00,44.9,34.6,29.88,WSW,248,0.0,0.0,67,0.00,,,0.01,Wunderground v.1.13,2013-02-16 00:18:00,
2013-02-15 19:24:00,44.6,34.7,29.88,WSW,248,0.0,0.0,68,0.00,,,0.01,Wunderground v.1.13,2013-02-16 00:24:00,
2013-02-15 19:30:00,44.5,34.6,29.88,WSW,248,0.0,0.0,68,0.00,,,0.01,Wunderground v.1.13,2013-02-16 00:30:00,
2013-02-15 19:36:00,43.8,35.0,29.89,WSW,248,0.0,0.0,71,0.00,,,0.01,Wunderground v.1.13,2013-02-16 00:36:00,
2013-02-15 19:42:00,43.3,34.5,29.89,WSW,248,0.0,0.0,71,0.00,,,0.01,Wunderground v.1.13,2013-02-16 00:42:00,
2013-02-15 19:48:00,43.1,34.3,29.89,WSW,248,0.0,0.0,71,0.00,,,0.01,Wunderground v.1.13,2013-02-16 00:48:00,
2013-02-15 19:54:00,42.8,34.0,29.89,WSW,248,0.0,0.0,71,0.00,,,0.01,Wunderground v.1.13,2013-02-16 00:54:00,
2013-02-15 20:00:00,42.5,34.1,29.89,WSW,248,0.0,0.0,72,0.00,,,0.01,Wunderground v.1.13,2013-02-16 01:00:00,
2013-02-15 20:06:00,42.3,33.9,29.89,WSW,248,0.0,0.0,72,0.00,,,0.01,Wunderground v.1.13,2013-02-16 01:06:00,
2013-02-15 20:12:00,41.9,33.9,29.89,WSW,248,0.0,0.0,73,0.00,,,0.01,Wunderground v.1.13,2013-02-16 01:12:00,
2013-02-15 20:18:00,41.5,34.2,29.89,WSW,248,0.0,0.0,75,0.00,,,0.01,Wunderground v.1.13,2013-02-16 01:18:00,
2013-02-15 20:24:00,41.3,34.0,29.89,WSW,248,0.0,0.0,75,0.00,,,0.01,Wunderground v.1.13,2013-02-16 01:24:00,
2013-02-15 20:30:00,41.2,34.2,29.89,WSW,248,0.0,0.0,76,0.00,,,0.01,Wunderground v.1.13,2013-02-16 01:30:00,
2013-02-15 20:36:00,41.2,33.9,29.89,WSW,248,0.0,0.0,75,0.00,,,0.01,Wunderground v.1.13,2013-02-16 01:36:00,
2013-02-15 20:42:00,41.2,33.9,29.89,WSW,248,0.0,0.0,75,0.00,,,0.01,Wunderground v.1.13,2013-02-16 01:42:00,
2013-02-15 20:48:00,41.2,33.9,29.89,WSW,248,0.0,0.0,75,0.00,,,0.01,Wunderground v.1.13,2013-02-16 01:48:00,
2013-02-15 20:54:00,41.2,33.9,29.89,WSW,248,0.0,0.0,75,0.00,,,0.01,Wunderground v.1.13,2013-02-16 01:54:00,
2013-02-15 21:00:00,41.1,33.8,29.89,WSW,248,0.0,0.0,75,0.00,,,0.01,Wunderground v.1.13,2013-02-16 02:00:00,
2013-02-15 21:06:00,41.1,34.1,29.89,WSW,248,0.0,0.0,76,0.00,,,0.01,Wunderground v.1.13,2013-02-16 02:06:00,
2013-02-15 21:12:00,40.9,33.9,29.89,WSW,248,0.0,0.0,76,0.00,,,0.01,Wunderground v.1.13,2013-02-16 02:12:00,
2013-02-15 21:18:00,40.8,33.8,29.89,WSW,248,0.0,0.0,76,0.00,,,0.01,Wunderground v.1.13,2013-02-16 02:18:00,
2013-02-15 21:24:00,40.6,34.0,29.89,WSW,248,0.0,0.0,77,0.00,,,0.01,Wunderground v.1.13,2013-02-16 02:24:00,
2013-02-15 21:30:00,40.5,33.9,29.89,WSW,248,0.0,0.0,77,0.00,,,0.01,Wunderground v.1.13,2013-02-16 02:30:00,
2013-02-15 21:36:00,40.3,33.7,29.89,WSW,248,0.0,0.0,77,0.00,,,0.01,Wunderground v.1.13,2013-02-16 02:36:00,
2013-02-15 21:42:00,40.1,33.8,29.89,WSW,248,0.0,0.0,78,0.00,,,0.01,Wunderground v.1.13,2013-02-16 02:42:00,
2013-02-15 21:48:00,39.9,33.6,29.89,WSW,248,0.0,0.0,78,0.00,,,0.01,Wunderground v.1.13,2013-02-16 02:48:00,
2013-02-15 21:54:00,39.8,33.5,29.89,WSW,248,0.0,0.0,78,0.00,,,0.01,Wunderground v.1.13,2013-02-16 02:54:00,
2013-02-15 22:00:00,39.5,33.2,29.89,WSW,248,0.0,0.0,78,0.00,,,0.01,Wunderground v.1.13,2013-02-16 03:00:00,
2013-02-15 22:06:00,39.3,33.3,29.89,WSW,248,0.0,0.0,79,0.00,,,0.01,Wunderground v.1.13,2013-02-16 03:06:00,
2013-02-15 22:12:00,39.2,32.9,29.89,WSW,248,0.0,0.0,78,0.00,,,0.01,Wunderground v.1.13,2013-02-16 03:12:00,
2013-02-15 22:18:00,38.9,32.6,29.89,WSW,248,0.0,0.0,78,0.00,,,0.01,Wunderground v.1.13,2013-02-16 03:18:00,
2013-02-15 22:24:00,38.8,32.5,29.89,WSW,248,0.0,0.0,78,0.00,,,0.01,Wunderground v.1.13,2013-02-16 03:24:00,
2013-02-15 22:30:00,38.6,32.3,29.89,WSW,248,0.0,0.0,78,0.00,,,0.01,Wunderground v.1.13,2013-02-16 03:30:00,
2013-02-15 22:36:00,38.5,32.6,29.88,WSW,248,0.0,0.0,79,0.00,,,0.01,Wunderground v.1.13,2013-02-16 03:36:00,
2013-02-15 22:42:00,38.5,33.5,29.88,NW,319,2.0,2.0,82,0.00,,,0.01,Wunderground v.1.13,2013-02-16 03:42:00,
2013-02-15 22:48:00,38.8,33.8,29.91,NW,319,2.0,5.0,82,0.00,,,0.01,Wunderground v.1.13,2013-02-16 03:48:00,
2013-02-15 22:54:00,39.5,33.8,29.91,NW,319,1.0,1.0,80,0.00,,,0.01,Wunderground v.1.13,2013-02-16 03:54:00,
2013-02-15 23:00:00,40.2,33.6,29.91,NW,319,0.0,0.0,77,0.00,,,0.01,Wunderground v.1.13,2013-02-16 04:00:00,
2013-02-15 23:06:00,41.2,33.9,29.91,NW,319,0.0,0.0,75,0.00,,,0.01,Wunderground v.1.13,2013-02-16 04:06:00,
2013-02-15 23:12:00,41.8,34.5,29.91,NW,319,0.0,0.0,75,0.00,,,0.01,Wunderground v.1.13,2013-02-16 04:12:00,
2013-02-15 23:18:00,42.2,34.5,29.90,NW,319,0.0,0.0,74,0.00,,,0.01,Wunderground v.1.13,2013-02-16 04:18:00,
2013-02-15 23:24:00,42.5,34.1,29.90,NW,319,0.0,0.0,72,0.00,,,0.01,Wunderground v.1.13,2013-02-16 04:24:00,
2013-02-15 23:30:00,43.1,34.7,29.90,NW,318,0.0,0.0,72,0.00,,,0.01,Wunderground v.1.13,2013-02-16 04:30:00,
2013-02-15 23:36:00,43.9,35.1,29.91,North,356,2.0,3.0,71,0.00,,,0.01,Wunderground v.1.13,2013-02-16 04:36:00,
2013-02-15 23:42:00,45.2,35.6,29.91,NNW,339,4.0,4.0,69,0.00,,,0.01,Wunderground v.1.13,2013-02-16 04:42:00,
2013-02-15 23:48:00,45.8,35.8,29.91,North,3,3.0,3.0,68,0.00,,,0.01,Wunderground v.1.13,2013-02-16 04:48:00,
2013-02-15 23:54:00,46.0,35.7,29.91,NE,42,1.0,1.0,67,0.00,,,0.01,Wunderground v.1.13,2013-02-16 04:54:00,